sensor_id;sensor_type;location;lat;lon;timestamp;temperature;humidity
11591;DHT22;5851;54.050;9.974;2023-09-30T00:01:09;14.60;97.10
11591;DHT22;5851;54.050;9.974;2023-09-30T00:03:36;14.60;96.50
11591;DHT22;5851;54.050;9.974;2023-09-30T00:06:03;14.50;96.40
11591;DHT22;5851;54.050;9.974;2023-09-30T00:08:30;14.50;96.80
11591;DHT22;5851;54.050;9.974;2023-09-30T00:10:59;14.50;96.60
11591;DHT22;5851;54.050;9.974;2023-09-30T00:13:26;14.50;96.70
11591;DHT22;5851;54.050;9.974;2023-09-30T00:15:53;14.50;96.90
11591;DHT22;5851;54.050;9.974;2023-09-30T00:18:20;14.50;96.60
11591;DHT22;5851;54.050;9.974;2023-09-30T00:20:47;14.40;96.60
11591;DHT22;5851;54.050;9.974;2023-09-30T00:23:14;14.40;96.60
11591;DHT22;5851;54.050;9.974;2023-09-30T00:25:41;14.40;96.70
11591;DHT22;5851;54.050;9.974;2023-09-30T00:28:09;14.40;96.40
11591;DHT22;5851;54.050;9.974;2023-09-30T00:30:36;14.40;96.90
11591;DHT22;5851;54.050;9.974;2023-09-30T00:33:04;14.40;97.00
11591;DHT22;5851;54.050;9.974;2023-09-30T00:35:32;14.50;97.00
11591;DHT22;5851;54.050;9.974;2023-09-30T00:37:59;14.40;96.60
11591;DHT22;5851;54.050;9.974;2023-09-30T00:40:26;14.30;96.70
11591;DHT22;5851;54.050;9.974;2023-09-30T00:42:52;14.30;96.80
11591;DHT22;5851;54.050;9.974;2023-09-30T00:45:21;14.30;96.50
11591;DHT22;5851;54.050;9.974;2023-09-30T00:47:48;14.30;96.60
11591;DHT22;5851;54.050;9.974;2023-09-30T00:50:15;14.30;96.70
11591;DHT22;5851;54.050;9.974;2023-09-30T00:52:43;14.30;96.70
11591;DHT22;5851;54.050;9.974;2023-09-30T00:55:12;14.30;96.90
11591;DHT22;5851;54.050;9.974;2023-09-30T00:57:39;14.30;97.10
11591;DHT22;5851;54.050;9.974;2023-09-30T01:00:09;14.40;96.90
11591;DHT22;5851;54.050;9.974;2023-09-30T01:02:39;14.40;96.90
11591;DHT22;5851;54.050;9.974;2023-09-30T01:05:06;14.40;96.80
11591;DHT22;5851;54.050;9.974;2023-09-30T01:07:34;14.30;96.50
11591;DHT22;5851;54.050;9.974;2023-09-30T01:10:01;14.30;96.70
11591;DHT22;5851;54.050;9.974;2023-09-30T01:12:28;14.30;96.90
11591;DHT22;5851;54.050;9.974;2023-09-30T01:14:58;14.30;97.00
11591;DHT22;5851;54.050;9.974;2023-09-30T01:17:25;14.30;97.00
11591;DHT22;5851;54.050;9.974;2023-09-30T01:19:57;14.40;96.60
11591;DHT22;5851;54.050;9.974;2023-09-30T01:22:26;14.30;96.80
11591;DHT22;5851;54.050;9.974;2023-09-30T01:24:55;14.30;96.90
11591;DHT22;5851;54.050;9.974;2023-09-30T01:27:22;14.30;96.90
11591;DHT22;5851;54.050;9.974;2023-09-30T01:29:49;14.30;96.80
11591;DHT22;5851;54.050;9.974;2023-09-30T01:32:16;14.30;96.80
11591;DHT22;5851;54.050;9.974;2023-09-30T01:34:44;14.20;96.70
11591;DHT22;5851;54.050;9.974;2023-09-30T01:37:11;14.20;96.90
11591;DHT22;5851;54.050;9.974;2023-09-30T01:39:40;14.20;96.80
11591;DHT22;5851;54.050;9.974;2023-09-30T01:42:07;14.10;97.10
11591;DHT22;5851;54.050;9.974;2023-09-30T01:44:34;14.10;97.00
11591;DHT22;5851;54.050;9.974;2023-09-30T01:47:01;14.10;97.10
11591;DHT22;5851;54.050;9.974;2023-09-30T01:49:27;14.10;97.00
11591;DHT22;5851;54.050;9.974;2023-09-30T01:51:54;14.20;97.00
11591;DHT22;5851;54.050;9.974;2023-09-30T01:54:21;14.10;96.80
11591;DHT22;5851;54.050;9.974;2023-09-30T01:56:49;14.10;96.80
11591;DHT22;5851;54.050;9.974;2023-09-30T01:59:16;14.10;96.90
11591;DHT22;5851;54.050;9.974;2023-09-30T02:01:43;14.20;97.00
11591;DHT22;5851;54.050;9.974;2023-09-30T02:04:11;14.10;96.90
11591;DHT22;5851;54.050;9.974;2023-09-30T02:06:41;14.10;96.70
11591;DHT22;5851;54.050;9.974;2023-09-30T02:09:08;14.10;96.60
11591;DHT22;5851;54.050;9.974;2023-09-30T02:11:35;14.00;97.00
11591;DHT22;5851;54.050;9.974;2023-09-30T02:14:04;14.00;96.90
11591;DHT22;5851;54.050;9.974;2023-09-30T02:16:32;14.00;97.10
11591;DHT22;5851;54.050;9.974;2023-09-30T02:18:59;14.00;96.70
11591;DHT22;5851;54.050;9.974;2023-09-30T02:21:26;14.00;96.90
11591;DHT22;5851;54.050;9.974;2023-09-30T02:23:54;13.90;96.80
11591;DHT22;5851;54.050;9.974;2023-09-30T02:26:21;13.90;96.90
11591;DHT22;5851;54.050;9.974;2023-09-30T02:28:51;13.90;96.90
11591;DHT22;5851;54.050;9.974;2023-09-30T02:31:19;13.90;97.00
11591;DHT22;5851;54.050;9.974;2023-09-30T02:33:46;13.90;97.00
11591;DHT22;5851;54.050;9.974;2023-09-30T02:36:13;13.90;96.90
11591;DHT22;5851;54.050;9.974;2023-09-30T02:38:41;13.90;97.10
11591;DHT22;5851;54.050;9.974;2023-09-30T02:41:09;13.90;97.10
11591;DHT22;5851;54.050;9.974;2023-09-30T02:43:36;13.90;97.20
11591;DHT22;5851;54.050;9.974;2023-09-30T02:46:04;13.90;97.10
11591;DHT22;5851;54.050;9.974;2023-09-30T02:48:32;13.90;97.10
11591;DHT22;5851;54.050;9.974;2023-09-30T02:50:59;13.90;97.10
11591;DHT22;5851;54.050;9.974;2023-09-30T02:53:25;13.80;97.20
11591;DHT22;5851;54.050;9.974;2023-09-30T02:55:53;13.80;97.20
11591;DHT22;5851;54.050;9.974;2023-09-30T02:58:22;13.80;97.30
11591;DHT22;5851;54.050;9.974;2023-09-30T03:00:49;13.80;97.30
11591;DHT22;5851;54.050;9.974;2023-09-30T03:03:16;13.70;97.40
11591;DHT22;5851;54.050;9.974;2023-09-30T03:05:44;13.80;97.40
11591;DHT22;5851;54.050;9.974;2023-09-30T03:08:12;13.80;97.30
11591;DHT22;5851;54.050;9.974;2023-09-30T03:10:39;13.70;97.40
11591;DHT22;5851;54.050;9.974;2023-09-30T03:13:07;13.70;97.80
11591;DHT22;5851;54.050;9.974;2023-09-30T03:15:34;13.70;97.50
11591;DHT22;5851;54.050;9.974;2023-09-30T03:18:02;13.80;97.60
11591;DHT22;5851;54.050;9.974;2023-09-30T03:20:29;13.70;97.50
11591;DHT22;5851;54.050;9.974;2023-09-30T03:22:58;13.80;97.60
11591;DHT22;5851;54.050;9.974;2023-09-30T03:25:25;13.80;97.50
11591;DHT22;5851;54.050;9.974;2023-09-30T03:27:52;13.80;97.60
11591;DHT22;5851;54.050;9.974;2023-09-30T03:30:19;13.80;97.80
11591;DHT22;5851;54.050;9.974;2023-09-30T03:32:45;13.80;97.70
11591;DHT22;5851;54.050;9.974;2023-09-30T03:35:13;13.70;97.90
11591;DHT22;5851;54.050;9.974;2023-09-30T03:37:42;13.70;97.90
11591;DHT22;5851;54.050;9.974;2023-09-30T03:40:11;13.70;98.00
11591;DHT22;5851;54.050;9.974;2023-09-30T03:42:39;13.60;98.00
11591;DHT22;5851;54.050;9.974;2023-09-30T03:45:08;13.70;98.10
11591;DHT22;5851;54.050;9.974;2023-09-30T03:47:36;13.70;98.00
11591;DHT22;5851;54.050;9.974;2023-09-30T03:50:04;13.70;98.00
11591;DHT22;5851;54.050;9.974;2023-09-30T03:52:34;13.70;98.00
11591;DHT22;5851;54.050;9.974;2023-09-30T03:55:00;13.70;97.90
11591;DHT22;5851;54.050;9.974;2023-09-30T03:57:32;13.70;97.90
11591;DHT22;5851;54.050;9.974;2023-09-30T04:00:00;13.70;98.00
11591;DHT22;5851;54.050;9.974;2023-09-30T04:02:31;13.60;98.40
11591;DHT22;5851;54.050;9.974;2023-09-30T04:04:58;13.60;98.60
11591;DHT22;5851;54.050;9.974;2023-09-30T04:07:25;13.70;98.30
11591;DHT22;5851;54.050;9.974;2023-09-30T04:09:54;13.70;98.20
11591;DHT22;5851;54.050;9.974;2023-09-30T04:12:21;13.70;98.00
11591;DHT22;5851;54.050;9.974;2023-09-30T04:14:50;13.60;98.50
11591;DHT22;5851;54.050;9.974;2023-09-30T04:17:17;13.70;98.30
11591;DHT22;5851;54.050;9.974;2023-09-30T04:19:44;13.70;98.40
11591;DHT22;5851;54.050;9.974;2023-09-30T04:22:11;13.70;98.40
11591;DHT22;5851;54.050;9.974;2023-09-30T04:24:38;13.70;98.40
11591;DHT22;5851;54.050;9.974;2023-09-30T04:27:06;13.70;98.70
11591;DHT22;5851;54.050;9.974;2023-09-30T04:29:33;13.70;98.40
11591;DHT22;5851;54.050;9.974;2023-09-30T04:32:01;13.70;98.60
11591;DHT22;5851;54.050;9.974;2023-09-30T04:34:28;13.70;98.50
11591;DHT22;5851;54.050;9.974;2023-09-30T04:36:56;13.70;99.00
11591;DHT22;5851;54.050;9.974;2023-09-30T04:39:23;13.70;98.70
11591;DHT22;5851;54.050;9.974;2023-09-30T04:41:50;13.70;98.80
11591;DHT22;5851;54.050;9.974;2023-09-30T04:44:17;13.70;98.80
11591;DHT22;5851;54.050;9.974;2023-09-30T04:46:44;13.70;98.60
11591;DHT22;5851;54.050;9.974;2023-09-30T04:49:14;13.60;98.70
11591;DHT22;5851;54.050;9.974;2023-09-30T04:51:41;13.60;99.00
11591;DHT22;5851;54.050;9.974;2023-09-30T04:54:08;13.60;99.20
11591;DHT22;5851;54.050;9.974;2023-09-30T04:56:36;13.70;98.90
11591;DHT22;5851;54.050;9.974;2023-09-30T04:59:03;13.70;98.80
11591;DHT22;5851;54.050;9.974;2023-09-30T05:01:30;13.70;98.80
11591;DHT22;5851;54.050;9.974;2023-09-30T05:03:57;13.70;99.00
11591;DHT22;5851;54.050;9.974;2023-09-30T05:06:26;13.60;99.10
11591;DHT22;5851;54.050;9.974;2023-09-30T05:08:52;13.60;99.20
11591;DHT22;5851;54.050;9.974;2023-09-30T05:11:21;13.70;99.30
11591;DHT22;5851;54.050;9.974;2023-09-30T05:13:47;13.60;99.20
11591;DHT22;5851;54.050;9.974;2023-09-30T05:16:14;13.60;99.30
11591;DHT22;5851;54.050;9.974;2023-09-30T05:18:42;13.60;99.20
11591;DHT22;5851;54.050;9.974;2023-09-30T05:21:08;13.60;99.40
11591;DHT22;5851;54.050;9.974;2023-09-30T05:23:37;13.70;99.20
11591;DHT22;5851;54.050;9.974;2023-09-30T05:26:04;13.70;99.60
11591;DHT22;5851;54.050;9.974;2023-09-30T05:28:32;13.60;99.50
11591;DHT22;5851;54.050;9.974;2023-09-30T05:31:00;13.50;99.40
11591;DHT22;5851;54.050;9.974;2023-09-30T05:33:28;13.60;99.20
11591;DHT22;5851;54.050;9.974;2023-09-30T05:35:54;13.60;99.60
11591;DHT22;5851;54.050;9.974;2023-09-30T05:38:21;13.60;99.50
11591;DHT22;5851;54.050;9.974;2023-09-30T05:40:50;13.60;99.60
11591;DHT22;5851;54.050;9.974;2023-09-30T05:43:17;13.60;99.70
11591;DHT22;5851;54.050;9.974;2023-09-30T05:45:45;13.60;99.50
11591;DHT22;5851;54.050;9.974;2023-09-30T05:48:15;13.60;99.90
11591;DHT22;5851;54.050;9.974;2023-09-30T05:50:42;13.60;99.90
11591;DHT22;5851;54.050;9.974;2023-09-30T05:53:09;13.60;99.90
11591;DHT22;5851;54.050;9.974;2023-09-30T05:55:37;13.60;99.80
11591;DHT22;5851;54.050;9.974;2023-09-30T05:58:06;13.60;99.80
11591;DHT22;5851;54.050;9.974;2023-09-30T06:00:33;13.60;99.90
11591;DHT22;5851;54.050;9.974;2023-09-30T06:03:01;13.60;99.80
11591;DHT22;5851;54.050;9.974;2023-09-30T06:05:30;13.50;99.90
11591;DHT22;5851;54.050;9.974;2023-09-30T06:07:58;13.60;99.70
11591;DHT22;5851;54.050;9.974;2023-09-30T06:10:25;13.60;99.60
11591;DHT22;5851;54.050;9.974;2023-09-30T06:12:53;13.60;99.80
11591;DHT22;5851;54.050;9.974;2023-09-30T06:15:22;13.50;99.90
11591;DHT22;5851;54.050;9.974;2023-09-30T06:17:51;13.50;99.90
11591;DHT22;5851;54.050;9.974;2023-09-30T06:20:18;13.50;99.70
11591;DHT22;5851;54.050;9.974;2023-09-30T06:22:48;13.60;99.90
11591;DHT22;5851;54.050;9.974;2023-09-30T06:25:16;13.50;99.90
11591;DHT22;5851;54.050;9.974;2023-09-30T06:27:43;13.50;99.80
11591;DHT22;5851;54.050;9.974;2023-09-30T06:30:12;13.60;99.70
11591;DHT22;5851;54.050;9.974;2023-09-30T06:32:40;13.70;99.70
11591;DHT22;5851;54.050;9.974;2023-09-30T06:35:08;13.70;99.90
11591;DHT22;5851;54.050;9.974;2023-09-30T06:37:36;13.60;99.70
11591;DHT22;5851;54.050;9.974;2023-09-30T06:40:04;13.60;99.80
11591;DHT22;5851;54.050;9.974;2023-09-30T06:42:33;13.70;99.80
11591;DHT22;5851;54.050;9.974;2023-09-30T06:45:00;13.70;99.90
11591;DHT22;5851;54.050;9.974;2023-09-30T06:47:31;13.70;99.90
11591;DHT22;5851;54.050;9.974;2023-09-30T06:50:00;13.70;99.90
11591;DHT22;5851;54.050;9.974;2023-09-30T06:52:33;13.80;99.90
11591;DHT22;5851;54.050;9.974;2023-09-30T06:55:00;13.70;99.90
11591;DHT22;5851;54.050;9.974;2023-09-30T06:57:27;13.80;99.90
11591;DHT22;5851;54.050;9.974;2023-09-30T06:59:54;13.80;99.90
11591;DHT22;5851;54.050;9.974;2023-09-30T07:02:22;13.80;99.90
11591;DHT22;5851;54.050;9.974;2023-09-30T07:04:49;13.80;99.90
11591;DHT22;5851;54.050;9.974;2023-09-30T07:07:17;13.90;99.90
11591;DHT22;5851;54.050;9.974;2023-09-30T07:09:44;14.00;99.90
11591;DHT22;5851;54.050;9.974;2023-09-30T07:12:11;14.00;99.90
11591;DHT22;5851;54.050;9.974;2023-09-30T07:14:38;14.00;99.90
11591;DHT22;5851;54.050;9.974;2023-09-30T07:17:05;14.00;99.90
11591;DHT22;5851;54.050;9.974;2023-09-30T07:19:32;14.00;99.90
11591;DHT22;5851;54.050;9.974;2023-09-30T07:21:59;14.00;99.90
11591;DHT22;5851;54.050;9.974;2023-09-30T07:24:27;14.10;99.90
11591;DHT22;5851;54.050;9.974;2023-09-30T07:26:54;14.10;99.90
11591;DHT22;5851;54.050;9.974;2023-09-30T07:29:21;14.10;99.90
11591;DHT22;5851;54.050;9.974;2023-09-30T07:31:48;14.10;99.90
11591;DHT22;5851;54.050;9.974;2023-09-30T07:34:16;14.20;99.90
11591;DHT22;5851;54.050;9.974;2023-09-30T07:36:43;14.20;99.90
11591;DHT22;5851;54.050;9.974;2023-09-30T07:39:10;14.30;99.90
11591;DHT22;5851;54.050;9.974;2023-09-30T07:41:38;14.30;99.90
11591;DHT22;5851;54.050;9.974;2023-09-30T07:44:05;14.40;99.90
11591;DHT22;5851;54.050;9.974;2023-09-30T07:46:32;14.40;99.90
11591;DHT22;5851;54.050;9.974;2023-09-30T07:48:59;14.40;99.90
11591;DHT22;5851;54.050;9.974;2023-09-30T07:51:25;14.40;99.90
11591;DHT22;5851;54.050;9.974;2023-09-30T07:53:52;14.50;99.90
11591;DHT22;5851;54.050;9.974;2023-09-30T07:56:19;14.40;99.90
11591;DHT22;5851;54.050;9.974;2023-09-30T07:58:48;14.40;99.90
11591;DHT22;5851;54.050;9.974;2023-09-30T08:01:15;14.50;99.90
11591;DHT22;5851;54.050;9.974;2023-09-30T08:03:43;14.60;99.90
11591;DHT22;5851;54.050;9.974;2023-09-30T08:06:10;14.60;99.90
11591;DHT22;5851;54.050;9.974;2023-09-30T08:08:37;14.60;99.90
11591;DHT22;5851;54.050;9.974;2023-09-30T08:11:04;14.60;99.90
11591;DHT22;5851;54.050;9.974;2023-09-30T08:13:31;14.60;99.90
11591;DHT22;5851;54.050;9.974;2023-09-30T08:16:00;14.60;99.90
11591;DHT22;5851;54.050;9.974;2023-09-30T08:18:27;14.70;99.90
11591;DHT22;5851;54.050;9.974;2023-09-30T08:20:54;14.80;99.90
11591;DHT22;5851;54.050;9.974;2023-09-30T08:23:20;14.80;99.90
11591;DHT22;5851;54.050;9.974;2023-09-30T08:25:47;14.90;99.90
11591;DHT22;5851;54.050;9.974;2023-09-30T08:28:14;14.90;99.90
11591;DHT22;5851;54.050;9.974;2023-09-30T08:30:41;14.90;99.90
11591;DHT22;5851;54.050;9.974;2023-09-30T08:33:10;15.00;99.90
11591;DHT22;5851;54.050;9.974;2023-09-30T08:35:37;15.00;99.90
11591;DHT22;5851;54.050;9.974;2023-09-30T08:38:04;15.00;99.90
11591;DHT22;5851;54.050;9.974;2023-09-30T08:40:31;15.00;99.90
11591;DHT22;5851;54.050;9.974;2023-09-30T08:42:58;15.10;99.90
11591;DHT22;5851;54.050;9.974;2023-09-30T08:45:28;15.10;99.90
11591;DHT22;5851;54.050;9.974;2023-09-30T08:47:57;15.10;99.90
11591;DHT22;5851;54.050;9.974;2023-09-30T08:50:27;15.20;99.90
11591;DHT22;5851;54.050;9.974;2023-09-30T08:52:55;15.30;99.90
11591;DHT22;5851;54.050;9.974;2023-09-30T08:55:26;15.30;99.90
11591;DHT22;5851;54.050;9.974;2023-09-30T08:57:54;15.30;99.90
11591;DHT22;5851;54.050;9.974;2023-09-30T09:00:22;15.40;99.90
11591;DHT22;5851;54.050;9.974;2023-09-30T09:02:49;15.40;99.90
11591;DHT22;5851;54.050;9.974;2023-09-30T09:05:16;15.40;99.90
11591;DHT22;5851;54.050;9.974;2023-09-30T09:07:45;15.50;99.90
11591;DHT22;5851;54.050;9.974;2023-09-30T09:10:13;15.40;99.90
11591;DHT22;5851;54.050;9.974;2023-09-30T09:12:41;15.50;99.90
11591;DHT22;5851;54.050;9.974;2023-09-30T09:15:19;15.40;99.80
11591;DHT22;5851;54.050;9.974;2023-09-30T09:17:47;15.40;99.90
11591;DHT22;5851;54.050;9.974;2023-09-30T09:20:17;15.50;99.90
11591;DHT22;5851;54.050;9.974;2023-09-30T09:22:49;15.60;99.90
11591;DHT22;5851;54.050;9.974;2023-09-30T09:25:19;15.60;99.90
11591;DHT22;5851;54.050;9.974;2023-09-30T09:27:48;15.70;99.90
11591;DHT22;5851;54.050;9.974;2023-09-30T09:30:19;15.70;99.90
11591;DHT22;5851;54.050;9.974;2023-09-30T09:32:59;15.80;99.90
11591;DHT22;5851;54.050;9.974;2023-09-30T09:35:27;15.90;99.90
11591;DHT22;5851;54.050;9.974;2023-09-30T09:37:58;15.80;99.30
11591;DHT22;5851;54.050;9.974;2023-09-30T09:40:27;15.80;99.40
11591;DHT22;5851;54.050;9.974;2023-09-30T09:42:55;15.90;99.70
11591;DHT22;5851;54.050;9.974;2023-09-30T09:45:22;15.90;99.30
11591;DHT22;5851;54.050;9.974;2023-09-30T09:47:51;15.90;99.70
11591;DHT22;5851;54.050;9.974;2023-09-30T09:50:19;15.90;98.90
11591;DHT22;5851;54.050;9.974;2023-09-30T09:52:48;16.00;99.10
11591;DHT22;5851;54.050;9.974;2023-09-30T09:55:18;16.00;99.20
11591;DHT22;5851;54.050;9.974;2023-09-30T09:57:46;16.10;99.10
11591;DHT22;5851;54.050;9.974;2023-09-30T10:00:16;16.20;98.90
11591;DHT22;5851;54.050;9.974;2023-09-30T10:02:45;16.20;98.60
11591;DHT22;5851;54.050;9.974;2023-09-30T10:05:16;16.30;97.90
11591;DHT22;5851;54.050;9.974;2023-09-30T10:07:47;16.30;97.80
11591;DHT22;5851;54.050;9.974;2023-09-30T10:10:19;16.30;98.20
11591;DHT22;5851;54.050;9.974;2023-09-30T10:12:46;16.30;98.40
11591;DHT22;5851;54.050;9.974;2023-09-30T10:15:35;16.20;98.60
11591;DHT22;5851;54.050;9.974;2023-09-30T10:18:03;16.20;98.50
11591;DHT22;5851;54.050;9.974;2023-09-30T10:20:33;16.30;98.60
11591;DHT22;5851;54.050;9.974;2023-09-30T10:23:24;16.30;98.20
11591;DHT22;5851;54.050;9.974;2023-09-30T10:25:54;16.40;97.80
11591;DHT22;5851;54.050;9.974;2023-09-30T10:28:36;16.40;97.40
11591;DHT22;5851;54.050;9.974;2023-09-30T10:31:09;16.30;97.80
11591;DHT22;5851;54.050;9.974;2023-09-30T10:33:36;16.30;97.90
11591;DHT22;5851;54.050;9.974;2023-09-30T10:36:04;16.30;97.50
11591;DHT22;5851;54.050;9.974;2023-09-30T10:38:38;16.40;97.50
11591;DHT22;5851;54.050;9.974;2023-09-30T10:41:10;16.40;97.80
11591;DHT22;5851;54.050;9.974;2023-09-30T10:43:39;16.30;97.90
11591;DHT22;5851;54.050;9.974;2023-09-30T10:46:30;16.30;98.20
11591;DHT22;5851;54.050;9.974;2023-09-30T10:49:15;16.30;98.10
11591;DHT22;5851;54.050;9.974;2023-09-30T10:51:43;16.30;97.90
11591;DHT22;5851;54.050;9.974;2023-09-30T10:54:12;16.30;97.90
11591;DHT22;5851;54.050;9.974;2023-09-30T10:56:41;16.20;97.50
11591;DHT22;5851;54.050;9.974;2023-09-30T10:59:08;16.20;97.90
11591;DHT22;5851;54.050;9.974;2023-09-30T11:01:35;16.30;97.60
11591;DHT22;5851;54.050;9.974;2023-09-30T11:04:03;16.30;97.50
11591;DHT22;5851;54.050;9.974;2023-09-30T11:06:31;16.20;97.90
11591;DHT22;5851;54.050;9.974;2023-09-30T11:08:59;16.10;98.10
11591;DHT22;5851;54.050;9.974;2023-09-30T11:11:37;16.10;97.90
11591;DHT22;5851;54.050;9.974;2023-09-30T11:14:19;16.10;97.60
11591;DHT22;5851;54.050;9.974;2023-09-30T11:16:47;16.20;97.60
11591;DHT22;5851;54.050;9.974;2023-09-30T11:19:15;16.30;97.60
11591;DHT22;5851;54.050;9.974;2023-09-30T11:21:42;16.30;96.80
11591;DHT22;5851;54.050;9.974;2023-09-30T11:24:10;16.30;96.00
11591;DHT22;5851;54.050;9.974;2023-09-30T11:26:38;16.40;96.60
11591;DHT22;5851;54.050;9.974;2023-09-30T11:29:08;16.40;96.30
11591;DHT22;5851;54.050;9.974;2023-09-30T11:31:39;16.50;95.30
11591;DHT22;5851;54.050;9.974;2023-09-30T11:34:06;16.60;94.40
11591;DHT22;5851;54.050;9.974;2023-09-30T11:36:35;16.40;95.30
11591;DHT22;5851;54.050;9.974;2023-09-30T11:39:03;16.40;95.00
11591;DHT22;5851;54.050;9.974;2023-09-30T11:41:34;16.40;95.00
11591;DHT22;5851;54.050;9.974;2023-09-30T11:44:08;16.40;93.90
11591;DHT22;5851;54.050;9.974;2023-09-30T11:46:50;16.50;91.90
11591;DHT22;5851;54.050;9.974;2023-09-30T11:49:30;16.70;91.80
11591;DHT22;5851;54.050;9.974;2023-09-30T11:51:59;16.80;91.50
11591;DHT22;5851;54.050;9.974;2023-09-30T11:54:30;16.90;91.40
11591;DHT22;5851;54.050;9.974;2023-09-30T11:56:58;16.90;90.80
11591;DHT22;5851;54.050;9.974;2023-09-30T11:59:25;16.90;91.10
11591;DHT22;5851;54.050;9.974;2023-09-30T12:01:53;16.90;91.30
11591;DHT22;5851;54.050;9.974;2023-09-30T12:04:20;16.80;91.80
11591;DHT22;5851;54.050;9.974;2023-09-30T12:06:48;17.00;90.40
11591;DHT22;5851;54.050;9.974;2023-09-30T12:09:15;17.00;90.10
11591;DHT22;5851;54.050;9.974;2023-09-30T12:11:42;16.90;91.40
11591;DHT22;5851;54.050;9.974;2023-09-30T12:14:11;17.00;90.80
11591;DHT22;5851;54.050;9.974;2023-09-30T12:16:39;17.10;90.90
11591;DHT22;5851;54.050;9.974;2023-09-30T12:19:08;17.00;91.50
11591;DHT22;5851;54.050;9.974;2023-09-30T12:21:35;16.90;91.80
11591;DHT22;5851;54.050;9.974;2023-09-30T12:24:04;16.90;91.60
11591;DHT22;5851;54.050;9.974;2023-09-30T12:26:31;17.00;91.50
11591;DHT22;5851;54.050;9.974;2023-09-30T12:28:58;17.00;92.00
11591;DHT22;5851;54.050;9.974;2023-09-30T12:31:25;17.00;92.20
11591;DHT22;5851;54.050;9.974;2023-09-30T12:33:52;17.00;92.10
11591;DHT22;5851;54.050;9.974;2023-09-30T12:36:21;16.90;92.40
11591;DHT22;5851;54.050;9.974;2023-09-30T12:38:49;16.80;92.40
11591;DHT22;5851;54.050;9.974;2023-09-30T12:41:16;17.00;91.90
11591;DHT22;5851;54.050;9.974;2023-09-30T12:43:44;17.00;91.70
11591;DHT22;5851;54.050;9.974;2023-09-30T12:46:11;17.00;91.80
11591;DHT22;5851;54.050;9.974;2023-09-30T12:48:39;17.10;91.80
11591;DHT22;5851;54.050;9.974;2023-09-30T12:51:06;17.10;91.20
11591;DHT22;5851;54.050;9.974;2023-09-30T12:53:35;17.00;91.30
11591;DHT22;5851;54.050;9.974;2023-09-30T12:56:03;17.00;91.60
11591;DHT22;5851;54.050;9.974;2023-09-30T12:58:30;17.10;91.10
11591;DHT22;5851;54.050;9.974;2023-09-30T13:00:57;17.10;91.00
11591;DHT22;5851;54.050;9.974;2023-09-30T13:03:24;17.10;92.00
11591;DHT22;5851;54.050;9.974;2023-09-30T13:05:51;17.10;92.50
11591;DHT22;5851;54.050;9.974;2023-09-30T13:08:18;17.10;91.40
11591;DHT22;5851;54.050;9.974;2023-09-30T13:10:47;17.00;92.20
11591;DHT22;5851;54.050;9.974;2023-09-30T13:13:16;17.00;92.70
11591;DHT22;5851;54.050;9.974;2023-09-30T13:15:43;17.10;92.60
11591;DHT22;5851;54.050;9.974;2023-09-30T13:18:10;17.10;92.40
11591;DHT22;5851;54.050;9.974;2023-09-30T13:20:37;17.00;93.10
11591;DHT22;5851;54.050;9.974;2023-09-30T13:23:04;16.90;92.70
11591;DHT22;5851;54.050;9.974;2023-09-30T13:25:31;16.80;92.70
11591;DHT22;5851;54.050;9.974;2023-09-30T13:28:01;16.80;93.00
11591;DHT22;5851;54.050;9.974;2023-09-30T13:30:28;16.80;93.20
11591;DHT22;5851;54.050;9.974;2023-09-30T13:32:54;16.80;93.10
11591;DHT22;5851;54.050;9.974;2023-09-30T13:35:22;16.80;93.20
11591;DHT22;5851;54.050;9.974;2023-09-30T13:37:49;16.90;92.80
11591;DHT22;5851;54.050;9.974;2023-09-30T13:40:16;16.80;93.10
11591;DHT22;5851;54.050;9.974;2023-09-30T13:42:43;16.80;93.00
11591;DHT22;5851;54.050;9.974;2023-09-30T13:45:12;16.90;92.80
11591;DHT22;5851;54.050;9.974;2023-09-30T13:47:39;17.00;92.40
11591;DHT22;5851;54.050;9.974;2023-09-30T13:50:07;17.00;92.60
11591;DHT22;5851;54.050;9.974;2023-09-30T13:52:34;17.10;91.80
11591;DHT22;5851;54.050;9.974;2023-09-30T13:55:02;17.20;92.20
11591;DHT22;5851;54.050;9.974;2023-09-30T13:57:30;17.10;91.80
11591;DHT22;5851;54.050;9.974;2023-09-30T13:59:57;17.10;90.90
11591;DHT22;5851;54.050;9.974;2023-09-30T14:02:25;16.90;91.00
11591;DHT22;5851;54.050;9.974;2023-09-30T14:04:52;16.90;90.80
11591;DHT22;5851;54.050;9.974;2023-09-30T14:07:20;17.00;90.40
11591;DHT22;5851;54.050;9.974;2023-09-30T14:09:47;16.90;90.00
11591;DHT22;5851;54.050;9.974;2023-09-30T14:12:14;16.90;91.00
11591;DHT22;5851;54.050;9.974;2023-09-30T14:14:41;16.90;90.80
11591;DHT22;5851;54.050;9.974;2023-09-30T14:17:08;17.00;89.80
11591;DHT22;5851;54.050;9.974;2023-09-30T14:19:38;16.90;89.70
11591;DHT22;5851;54.050;9.974;2023-09-30T14:22:06;17.00;89.10
11591;DHT22;5851;54.050;9.974;2023-09-30T14:24:35;16.90;90.20
11591;DHT22;5851;54.050;9.974;2023-09-30T14:27:02;16.90;90.50
11591;DHT22;5851;54.050;9.974;2023-09-30T14:29:30;16.90;90.30
11591;DHT22;5851;54.050;9.974;2023-09-30T14:31:57;16.90;90.10
11591;DHT22;5851;54.050;9.974;2023-09-30T14:34:24;16.90;90.70
11591;DHT22;5851;54.050;9.974;2023-09-30T14:36:52;16.90;89.60
11591;DHT22;5851;54.050;9.974;2023-09-30T14:39:20;16.80;90.20
11591;DHT22;5851;54.050;9.974;2023-09-30T14:41:46;16.80;90.00
11591;DHT22;5851;54.050;9.974;2023-09-30T14:44:13;16.80;87.70
11591;DHT22;5851;54.050;9.974;2023-09-30T14:46:40;16.80;89.10
11591;DHT22;5851;54.050;9.974;2023-09-30T14:49:08;16.80;88.90
11591;DHT22;5851;54.050;9.974;2023-09-30T14:51:37;16.80;88.80
11591;DHT22;5851;54.050;9.974;2023-09-30T14:54:06;16.70;90.30
11591;DHT22;5851;54.050;9.974;2023-09-30T14:56:33;16.80;90.10
11591;DHT22;5851;54.050;9.974;2023-09-30T14:59:00;16.80;89.20
11591;DHT22;5851;54.050;9.974;2023-09-30T15:01:28;16.80;90.00
11591;DHT22;5851;54.050;9.974;2023-09-30T15:03:55;16.80;90.00
11591;DHT22;5851;54.050;9.974;2023-09-30T15:06:22;16.70;90.00
11591;DHT22;5851;54.050;9.974;2023-09-30T15:08:50;16.70;90.80
11591;DHT22;5851;54.050;9.974;2023-09-30T15:11:18;16.70;90.60
11591;DHT22;5851;54.050;9.974;2023-09-30T15:13:45;16.70;90.60
11591;DHT22;5851;54.050;9.974;2023-09-30T15:16:16;16.70;90.80
11591;DHT22;5851;54.050;9.974;2023-09-30T15:18:44;16.60;90.90
11591;DHT22;5851;54.050;9.974;2023-09-30T15:21:11;16.60;90.90
11591;DHT22;5851;54.050;9.974;2023-09-30T15:23:38;16.70;91.10
11591;DHT22;5851;54.050;9.974;2023-09-30T15:26:05;16.70;90.80
11591;DHT22;5851;54.050;9.974;2023-09-30T15:28:33;16.60;91.30
11591;DHT22;5851;54.050;9.974;2023-09-30T15:31:01;16.60;91.40
11591;DHT22;5851;54.050;9.974;2023-09-30T15:33:28;16.60;90.70
11591;DHT22;5851;54.050;9.974;2023-09-30T15:35:55;16.50;90.70
11591;DHT22;5851;54.050;9.974;2023-09-30T15:38:22;16.50;91.30
11591;DHT22;5851;54.050;9.974;2023-09-30T15:40:54;16.50;91.00
11591;DHT22;5851;54.050;9.974;2023-09-30T15:43:23;16.40;90.90
11591;DHT22;5851;54.050;9.974;2023-09-30T15:45:51;16.40;91.40
11591;DHT22;5851;54.050;9.974;2023-09-30T15:48:19;16.40;91.60
11591;DHT22;5851;54.050;9.974;2023-09-30T15:50:46;16.40;91.70